sensor_id;sensor_type;location;lat;lon;timestamp;temperature;humidity
41469;DHT22;27206;47.032;15.484;2023-12-22T00:01:30;6.70;99.90
41469;DHT22;27206;47.032;15.484;2023-12-22T00:03:56;6.50;99.90
41469;DHT22;27206;47.032;15.484;2023-12-22T00:06:22;6.30;99.90
41469;DHT22;27206;47.032;15.484;2023-12-22T00:08:47;6.00;99.90
41469;DHT22;27206;47.032;15.484;2023-12-22T00:11:13;5.80;99.90
41469;DHT22;27206;47.032;15.484;2023-12-22T00:13:38;5.80;99.90
41469;DHT22;27206;47.032;15.484;2023-12-22T00:16:04;5.70;99.90
41469;DHT22;27206;47.032;15.484;2023-12-22T00:18:29;5.60;99.90
41469;DHT22;27206;47.032;15.484;2023-12-22T00:20:56;5.40;99.90
41469;DHT22;27206;47.032;15.484;2023-12-22T00:23:21;5.10;99.90
41469;DHT22;27206;47.032;15.484;2023-12-22T00:25:47;4.90;99.90
41469;DHT22;27206;47.032;15.484;2023-12-22T00:28:12;4.90;99.90
41469;DHT22;27206;47.032;15.484;2023-12-22T00:30:38;4.70;99.90
41469;DHT22;27206;47.032;15.484;2023-12-22T00:33:03;4.40;99.90
41469;DHT22;27206;47.032;15.484;2023-12-22T00:35:29;4.30;99.90
41469;DHT22;27206;47.032;15.484;2023-12-22T00:37:54;4.20;99.90
41469;DHT22;27206;47.032;15.484;2023-12-22T00:40:20;4.20;99.90
41469;DHT22;27206;47.032;15.484;2023-12-22T00:42:45;4.10;99.90
41469;DHT22;27206;47.032;15.484;2023-12-22T00:45:11;4.10;99.90
41469;DHT22;27206;47.032;15.484;2023-12-22T00:47:36;4.10;99.90
41469;DHT22;27206;47.032;15.484;2023-12-22T00:50:02;4.50;99.90
41469;DHT22;27206;47.032;15.484;2023-12-22T00:52:29;5.50;99.90
41469;DHT22;27206;47.032;15.484;2023-12-22T00:54:55;5.90;99.90
41469;DHT22;27206;47.032;15.484;2023-12-22T00:57:20;6.10;99.90
41469;DHT22;27206;47.032;15.484;2023-12-22T00:59:46;6.10;99.90
41469;DHT22;27206;47.032;15.484;2023-12-22T01:02:13;6.20;99.90
41469;DHT22;27206;47.032;15.484;2023-12-22T01:04:39;6.20;99.90
41469;DHT22;27206;47.032;15.484;2023-12-22T01:07:06;6.10;99.90
41469;DHT22;27206;47.032;15.484;2023-12-22T01:09:32;6.10;99.90
41469;DHT22;27206;47.032;15.484;2023-12-22T01:11:57;6.00;99.90
41469;DHT22;27206;47.032;15.484;2023-12-22T01:14:24;6.00;99.90
41469;DHT22;27206;47.032;15.484;2023-12-22T01:16:49;5.90;99.90
41469;DHT22;27206;47.032;15.484;2023-12-22T01:19:15;5.80;99.90
41469;DHT22;27206;47.032;15.484;2023-12-22T01:21:40;5.70;99.90
41469;DHT22;27206;47.032;15.484;2023-12-22T01:24:07;5.70;99.90
41469;DHT22;27206;47.032;15.484;2023-12-22T01:26:32;5.60;99.90
41469;DHT22;27206;47.032;15.484;2023-12-22T01:28:58;5.50;99.90
41469;DHT22;27206;47.032;15.484;2023-12-22T01:31:23;5.60;99.90
41469;DHT22;27206;47.032;15.484;2023-12-22T01:33:49;5.50;99.90
41469;DHT22;27206;47.032;15.484;2023-12-22T01:36:14;5.30;99.90
41469;DHT22;27206;47.032;15.484;2023-12-22T01:38:40;5.40;99.90
41469;DHT22;27206;47.032;15.484;2023-12-22T01:41:05;5.50;99.90
41469;DHT22;27206;47.032;15.484;2023-12-22T01:43:31;5.60;99.90
41469;DHT22;27206;47.032;15.484;2023-12-22T01:45:57;5.60;99.90
41469;DHT22;27206;47.032;15.484;2023-12-22T01:48:24;5.60;99.90
41469;DHT22;27206;47.032;15.484;2023-12-22T01:50:53;5.60;99.90
41469;DHT22;27206;47.032;15.484;2023-12-22T01:53:20;5.70;99.90
41469;DHT22;27206;47.032;15.484;2023-12-22T01:55:47;5.80;99.90
41469;DHT22;27206;47.032;15.484;2023-12-22T01:58:13;5.80;99.90
41469;DHT22;27206;47.032;15.484;2023-12-22T02:00:39;5.80;99.90
41469;DHT22;27206;47.032;15.484;2023-12-22T02:03:04;5.80;99.90
41469;DHT22;27206;47.032;15.484;2023-12-22T02:05:30;5.70;99.90
41469;DHT22;27206;47.032;15.484;2023-12-22T02:07:56;5.60;99.90
41469;DHT22;27206;47.032;15.484;2023-12-22T02:10:21;5.50;99.90
41469;DHT22;27206;47.032;15.484;2023-12-22T02:12:47;5.50;99.90
41469;DHT22;27206;47.032;15.484;2023-12-22T02:15:13;5.50;99.90
41469;DHT22;27206;47.032;15.484;2023-12-22T02:17:41;5.50;99.90
41469;DHT22;27206;47.032;15.484;2023-12-22T02:20:08;5.40;99.90
41469;DHT22;27206;47.032;15.484;2023-12-22T02:22:34;5.20;99.90
41469;DHT22;27206;47.032;15.484;2023-12-22T02:25:00;5.10;99.90
41469;DHT22;27206;47.032;15.484;2023-12-22T02:29:57;5.10;99.90
41469;DHT22;27206;47.032;15.484;2023-12-22T02:32:34;5.20;99.90
41469;DHT22;27206;47.032;15.484;2023-12-22T02:35:02;5.40;99.90
41469;DHT22;27206;47.032;15.484;2023-12-22T02:37:28;5.50;99.90
41469;DHT22;27206;47.032;15.484;2023-12-22T02:39:54;5.50;99.90
41469;DHT22;27206;47.032;15.484;2023-12-22T02:42:20;5.60;99.90
41469;DHT22;27206;47.032;15.484;2023-12-22T02:44:48;5.60;99.90
41469;DHT22;27206;47.032;15.484;2023-12-22T02:47:14;5.50;99.90
41469;DHT22;27206;47.032;15.484;2023-12-22T02:49:39;5.50;99.90
41469;DHT22;27206;47.032;15.484;2023-12-22T02:52:05;5.40;99.90
41469;DHT22;27206;47.032;15.484;2023-12-22T02:54:30;5.40;99.90
41469;DHT22;27206;47.032;15.484;2023-12-22T02:56:58;5.40;99.90
41469;DHT22;27206;47.032;15.484;2023-12-22T02:59:25;5.40;99.90
41469;DHT22;27206;47.032;15.484;2023-12-22T03:01:52;5.30;99.90
41469;DHT22;27206;47.032;15.484;2023-12-22T03:04:18;5.30;99.90
41469;DHT22;27206;47.032;15.484;2023-12-22T03:06:43;5.30;99.90
41469;DHT22;27206;47.032;15.484;2023-12-22T03:09:09;5.20;99.90
41469;DHT22;27206;47.032;15.484;2023-12-22T03:11:35;5.20;99.90
41469;DHT22;27206;47.032;15.484;2023-12-22T03:14:00;5.20;99.90
41469;DHT22;27206;47.032;15.484;2023-12-22T03:16:26;5.10;99.90
41469;DHT22;27206;47.032;15.484;2023-12-22T03:18:51;5.10;99.90
41469;DHT22;27206;47.032;15.484;2023-12-22T03:21:17;5.00;99.90
41469;DHT22;27206;47.032;15.484;2023-12-22T03:23:44;5.00;99.90
41469;DHT22;27206;47.032;15.484;2023-12-22T03:26:09;4.90;99.90
41469;DHT22;27206;47.032;15.484;2023-12-22T03:28:35;5.00;99.90
41469;DHT22;27206;47.032;15.484;2023-12-22T03:31:00;5.00;99.90
41469;DHT22;27206;47.032;15.484;2023-12-22T03:33:26;5.00;99.90
41469;DHT22;27206;47.032;15.484;2023-12-22T03:35:51;5.20;99.90
41469;DHT22;27206;47.032;15.484;2023-12-22T03:38:17;5.30;99.90
41469;DHT22;27206;47.032;15.484;2023-12-22T03:40:42;5.30;99.90
41469;DHT22;27206;47.032;15.484;2023-12-22T03:43:11;5.30;99.90
41469;DHT22;27206;47.032;15.484;2023-12-22T03:45:42;5.40;99.90
41469;DHT22;27206;47.032;15.484;2023-12-22T03:48:14;5.40;99.90
41469;DHT22;27206;47.032;15.484;2023-12-22T03:50:39;5.40;99.90
41469;DHT22;27206;47.032;15.484;2023-12-22T03:53:05;5.30;99.90
41469;DHT22;27206;47.032;15.484;2023-12-22T03:55:30;5.30;99.90
41469;DHT22;27206;47.032;15.484;2023-12-22T03:57:56;5.30;99.90
41469;DHT22;27206;47.032;15.484;2023-12-22T04:00:21;5.30;99.90
41469;DHT22;27206;47.032;15.484;2023-12-22T04:02:47;5.20;99.90
41469;DHT22;27206;47.032;15.484;2023-12-22T04:05:13;5.20;99.90
41469;DHT22;27206;47.032;15.484;2023-12-22T04:07:38;5.20;99.90
41469;DHT22;27206;47.032;15.484;2023-12-22T04:10:04;5.10;99.90
41469;DHT22;27206;47.032;15.484;2023-12-22T04:12:29;5.20;99.90
41469;DHT22;27206;47.032;15.484;2023-12-22T04:14:55;5.10;99.90
41469;DHT22;27206;47.032;15.484;2023-12-22T04:17:21;5.10;99.90
41469;DHT22;27206;47.032;15.484;2023-12-22T04:19:46;5.10;99.90
41469;DHT22;27206;47.032;15.484;2023-12-22T04:22:12;5.00;99.90
41469;DHT22;27206;47.032;15.484;2023-12-22T04:24:37;5.00;99.90
41469;DHT22;27206;47.032;15.484;2023-12-22T04:27:03;5.00;98.80
41469;DHT22;27206;47.032;15.484;2023-12-22T04:29:28;5.10;94.40
41469;DHT22;27206;47.032;15.484;2023-12-22T04:31:54;5.20;92.60
41469;DHT22;27206;47.032;15.484;2023-12-22T04:34:19;5.10;93.40
41469;DHT22;27206;47.032;15.484;2023-12-22T04:36:45;5.10;85.70
41469;DHT22;27206;47.032;15.484;2023-12-22T04:39:12;5.30;63.90
41469;DHT22;27206;47.032;15.484;2023-12-22T04:41:37;5.30;38.20
41469;DHT22;27206;47.032;15.484;2023-12-22T04:44:03;5.70;2.60
41469;DHT22;27206;47.032;15.484;2023-12-22T04:46:29;5.80;1.00
41469;DHT22;27206;47.032;15.484;2023-12-22T04:48:55;5.80;1.00
41469;DHT22;27206;47.032;15.484;2023-12-22T04:51:20;5.70;1.00
41469;DHT22;27206;47.032;15.484;2023-12-22T04:53:46;5.50;2.30
41469;DHT22;27206;47.032;15.484;2023-12-22T04:56:12;5.40;1.40
41469;DHT22;27206;47.032;15.484;2023-12-22T04:58:37;5.30;7.60
41469;DHT22;27206;47.032;15.484;2023-12-22T05:01:03;5.20;17.20
41469;DHT22;27206;47.032;15.484;2023-12-22T05:03:28;5.00;28.10
41469;DHT22;27206;47.032;15.484;2023-12-22T05:05:54;4.90;37.50
41469;DHT22;27206;47.032;15.484;2023-12-22T05:08:19;4.80;45.50
41469;DHT22;27206;47.032;15.484;2023-12-22T05:10:45;4.70;53.00
41469;DHT22;27206;47.032;15.484;2023-12-22T05:13:10;4.70;55.90
41469;DHT22;27206;47.032;15.484;2023-12-22T05:15:36;4.60;59.40
41469;DHT22;27206;47.032;15.484;2023-12-22T05:18:01;4.60;61.90
41469;DHT22;27206;47.032;15.484;2023-12-22T05:20:27;4.50;65.10
41469;DHT22;27206;47.032;15.484;2023-12-22T05:22:52;4.50;66.00
41469;DHT22;27206;47.032;15.484;2023-12-22T05:25:18;4.50;66.60
41469;DHT22;27206;47.032;15.484;2023-12-22T05:27:43;4.40;69.50
41469;DHT22;27206;47.032;15.484;2023-12-22T05:30:09;4.40;66.00
41469;DHT22;27206;47.032;15.484;2023-12-22T05:32:34;4.50;63.10
41469;DHT22;27206;47.032;15.484;2023-12-22T05:35:00;4.40;61.40
41469;DHT22;27206;47.032;15.484;2023-12-22T05:37:25;4.40;63.70
41469;DHT22;27206;47.032;15.484;2023-12-22T05:39:51;4.40;62.20
41469;DHT22;27206;47.032;15.484;2023-12-22T05:42:16;4.40;62.40
41469;DHT22;27206;47.032;15.484;2023-12-22T05:44:42;4.40;62.80
41469;DHT22;27206;47.032;15.484;2023-12-22T05:47:08;4.40;62.10
41469;DHT22;27206;47.032;15.484;2023-12-22T05:49:33;4.50;64.20
41469;DHT22;27206;47.032;15.484;2023-12-22T05:51:59;4.40;64.30
41469;DHT22;27206;47.032;15.484;2023-12-22T05:54:24;4.40;69.40
41469;DHT22;27206;47.032;15.484;2023-12-22T05:56:50;4.30;75.70
41469;DHT22;27206;47.032;15.484;2023-12-22T05:59:17;4.30;73.80
41469;DHT22;27206;47.032;15.484;2023-12-22T06:01:43;4.20;77.80
41469;DHT22;27206;47.032;15.484;2023-12-22T06:04:08;4.20;77.90
41469;DHT22;27206;47.032;15.484;2023-12-22T06:06:34;4.20;81.80
41469;DHT22;27206;47.032;15.484;2023-12-22T06:09:01;4.20;81.60
41469;DHT22;27206;47.032;15.484;2023-12-22T06:11:26;4.10;85.70
41469;DHT22;27206;47.032;15.484;2023-12-22T06:13:52;4.10;90.70
41469;DHT22;27206;47.032;15.484;2023-12-22T06:16:17;4.00;93.30
41469;DHT22;27206;47.032;15.484;2023-12-22T06:18:43;4.00;93.90
41469;DHT22;27206;47.032;15.484;2023-12-22T06:21:09;4.10;94.70
41469;DHT22;27206;47.032;15.484;2023-12-22T06:23:36;4.10;96.20
41469;DHT22;27206;47.032;15.484;2023-12-22T06:26:02;4.00;97.40
41469;DHT22;27206;47.032;15.484;2023-12-22T06:28:32;4.00;97.60
41469;DHT22;27206;47.032;15.484;2023-12-22T06:30:58;4.10;96.80
41469;DHT22;27206;47.032;15.484;2023-12-22T06:33:23;4.20;96.60
41469;DHT22;27206;47.032;15.484;2023-12-22T06:35:49;4.20;96.10
41469;DHT22;27206;47.032;15.484;2023-12-22T06:38:19;4.20;95.90
41469;DHT22;27206;47.032;15.484;2023-12-22T06:40:44;4.20;95.00
41469;DHT22;27206;47.032;15.484;2023-12-22T06:43:12;4.20;95.50
41469;DHT22;27206;47.032;15.484;2023-12-22T06:45:37;4.20;95.30
41469;DHT22;27206;47.032;15.484;2023-12-22T06:48:05;4.20;94.90
41469;DHT22;27206;47.032;15.484;2023-12-22T06:50:30;4.30;93.30
41469;DHT22;27206;47.032;15.484;2023-12-22T06:52:56;4.40;91.80
41469;DHT22;27206;47.032;15.484;2023-12-22T06:55:21;4.40;91.60
41469;DHT22;27206;47.032;15.484;2023-12-22T06:57:47;4.40;91.10
41469;DHT22;27206;47.032;15.484;2023-12-22T07:00:12;4.40;91.10
41469;DHT22;27206;47.032;15.484;2023-12-22T07:02:38;4.40;91.60
41469;DHT22;27206;47.032;15.484;2023-12-22T07:07:46;4.40;92.70
41469;DHT22;27206;47.032;15.484;2023-12-22T07:10:12;4.50;92.00
41469;DHT22;27206;47.032;15.484;2023-12-22T07:12:38;4.50;92.50
41469;DHT22;27206;47.032;15.484;2023-12-22T07:15:05;4.50;92.50
41469;DHT22;27206;47.032;15.484;2023-12-22T07:17:32;4.50;93.90
41469;DHT22;27206;47.032;15.484;2023-12-22T07:19:57;4.50;94.30
41469;DHT22;27206;47.032;15.484;2023-12-22T07:22:23;4.50;95.30
41469;DHT22;27206;47.032;15.484;2023-12-22T07:24:48;4.50;96.10
41469;DHT22;27206;47.032;15.484;2023-12-22T07:27:15;4.60;97.30
41469;DHT22;27206;47.032;15.484;2023-12-22T07:29:40;4.50;98.30
41469;DHT22;27206;47.032;15.484;2023-12-22T07:32:06;4.50;99.20
41469;DHT22;27206;47.032;15.484;2023-12-22T07:34:31;4.50;99.90
41469;DHT22;27206;47.032;15.484;2023-12-22T07:36:57;4.50;99.90
41469;DHT22;27206;47.032;15.484;2023-12-22T07:39:22;4.50;99.90
41469;DHT22;27206;47.032;15.484;2023-12-22T07:41:48;4.40;99.90
41469;DHT22;27206;47.032;15.484;2023-12-22T07:44:14;4.40;99.90
41469;DHT22;27206;47.032;15.484;2023-12-22T07:46:39;4.50;99.90
41469;DHT22;27206;47.032;15.484;2023-12-22T07:49:05;4.50;99.90
41469;DHT22;27206;47.032;15.484;2023-12-22T07:51:30;4.50;99.90
41469;DHT22;27206;47.032;15.484;2023-12-22T07:53:56;4.50;99.90
41469;DHT22;27206;47.032;15.484;2023-12-22T07:56:21;4.50;99.90
41469;DHT22;27206;47.032;15.484;2023-12-22T07:58:48;4.50;99.90
41469;DHT22;27206;47.032;15.484;2023-12-22T08:01:13;4.50;99.90
41469;DHT22;27206;47.032;15.484;2023-12-22T08:03:40;4.60;99.90
41469;DHT22;27206;47.032;15.484;2023-12-22T08:06:06;4.60;99.90
41469;DHT22;27206;47.032;15.484;2023-12-22T08:08:32;4.60;99.90
41469;DHT22;27206;47.032;15.484;2023-12-22T08:10:58;4.60;99.90
41469;DHT22;27206;47.032;15.484;2023-12-22T08:13:24;4.60;99.90
41469;DHT22;27206;47.032;15.484;2023-12-22T08:15:50;4.60;99.90
41469;DHT22;27206;47.032;15.484;2023-12-22T08:18:15;4.70;99.90
41469;DHT22;27206;47.032;15.484;2023-12-22T08:20:41;4.70;99.90
41469;DHT22;27206;47.032;15.484;2023-12-22T08:23:07;4.60;99.90
41469;DHT22;27206;47.032;15.484;2023-12-22T08:25:32;4.70;99.90
41469;DHT22;27206;47.032;15.484;2023-12-22T08:27:58;4.70;99.90
41469;DHT22;27206;47.032;15.484;2023-12-22T08:30:23;4.70;99.90
41469;DHT22;27206;47.032;15.484;2023-12-22T08:32:50;4.50;99.90
41469;DHT22;27206;47.032;15.484;2023-12-22T08:35:15;4.50;99.90
41469;DHT22;27206;47.032;15.484;2023-12-22T08:37:42;4.50;99.90
41469;DHT22;27206;47.032;15.484;2023-12-22T08:40:07;4.60;99.90
41469;DHT22;27206;47.032;15.484;2023-12-22T08:42:33;4.60;99.90
41469;DHT22;27206;47.032;15.484;2023-12-22T08:44:58;4.70;99.90
41469;DHT22;27206;47.032;15.484;2023-12-22T08:47:24;4.70;99.90
41469;DHT22;27206;47.032;15.484;2023-12-22T08:49:50;4.50;99.90
41469;DHT22;27206;47.032;15.484;2023-12-22T08:52:16;4.60;99.90
41469;DHT22;27206;47.032;15.484;2023-12-22T08:54:41;4.60;99.90
41469;DHT22;27206;47.032;15.484;2023-12-22T08:57:07;4.60;99.90
41469;DHT22;27206;47.032;15.484;2023-12-22T08:59:32;4.60;99.90
41469;DHT22;27206;47.032;15.484;2023-12-22T09:01:58;4.70;99.90
41469;DHT22;27206;47.032;15.484;2023-12-22T09:04:24;4.70;99.90
41469;DHT22;27206;47.032;15.484;2023-12-22T09:06:49;4.70;99.90
41469;DHT22;27206;47.032;15.484;2023-12-22T09:09:15;4.80;99.90
41469;DHT22;27206;47.032;15.484;2023-12-22T09:11:41;4.80;99.90
41469;DHT22;27206;47.032;15.484;2023-12-22T09:14:06;4.80;99.90
41469;DHT22;27206;47.032;15.484;2023-12-22T09:16:35;4.80;99.90
41469;DHT22;27206;47.032;15.484;2023-12-22T09:19:01;4.80;99.90
41469;DHT22;27206;47.032;15.484;2023-12-22T09:21:26;4.80;99.90
41469;DHT22;27206;47.032;15.484;2023-12-22T09:23:52;4.70;99.90
41469;DHT22;27206;47.032;15.484;2023-12-22T09:26:18;4.80;99.90
41469;DHT22;27206;47.032;15.484;2023-12-22T09:28:43;4.80;99.90
41469;DHT22;27206;47.032;15.484;2023-12-22T09:31:09;4.80;99.90
41469;DHT22;27206;47.032;15.484;2023-12-22T09:33:35;4.70;99.90
41469;DHT22;27206;47.032;15.484;2023-12-22T09:36:01;4.80;99.90
41469;DHT22;27206;47.032;15.484;2023-12-22T09:38:26;4.80;99.90
41469;DHT22;27206;47.032;15.484;2023-12-22T09:40:53;4.80;99.90
41469;DHT22;27206;47.032;15.484;2023-12-22T09:43:19;4.80;99.90
41469;DHT22;27206;47.032;15.484;2023-12-22T09:45:51;4.70;99.90
41469;DHT22;27206;47.032;15.484;2023-12-22T09:48:17;4.80;99.90
41469;DHT22;27206;47.032;15.484;2023-12-22T09:50:44;4.80;99.90
41469;DHT22;27206;47.032;15.484;2023-12-22T09:53:13;4.80;99.90
41469;DHT22;27206;47.032;15.484;2023-12-22T09:55:39;4.80;99.90
41469;DHT22;27206;47.032;15.484;2023-12-22T09:58:05;4.80;99.90
41469;DHT22;27206;47.032;15.484;2023-12-22T10:00:31;4.60;99.90
41469;DHT22;27206;47.032;15.484;2023-12-22T10:02:57;4.70;99.90
41469;DHT22;27206;47.032;15.484;2023-12-22T10:05:22;4.60;99.90
41469;DHT22;27206;47.032;15.484;2023-12-22T10:07:48;4.70;99.90
41469;DHT22;27206;47.032;15.484;2023-12-22T10:10:14;4.70;99.90
41469;DHT22;27206;47.032;15.484;2023-12-22T10:12:41;4.60;99.90
41469;DHT22;27206;47.032;15.484;2023-12-22T10:15:09;4.60;99.90
41469;DHT22;27206;47.032;15.484;2023-12-22T10:17:36;4.70;99.90
41469;DHT22;27206;47.032;15.484;2023-12-22T10:20:02;4.80;99.90
41469;DHT22;27206;47.032;15.484;2023-12-22T10:22:28;4.70;99.90
41469;DHT22;27206;47.032;15.484;2023-12-22T10:24:54;4.70;99.90
41469;DHT22;27206;47.032;15.484;2023-12-22T10:27:19;4.70;99.90
41469;DHT22;27206;47.032;15.484;2023-12-22T10:29:57;4.60;99.90
41469;DHT22;27206;47.032;15.484;2023-12-22T10:32:23;4.60;99.90
41469;DHT22;27206;47.032;15.484;2023-12-22T10:34:51;4.60;99.90
41469;DHT22;27206;47.032;15.484;2023-12-22T10:37:16;4.70;99.90
41469;DHT22;27206;47.032;15.484;2023-12-22T10:39:42;4.90;99.90
41469;DHT22;27206;47.032;15.484;2023-12-22T10:42:07;4.90;99.90
41469;DHT22;27206;47.032;15.484;2023-12-22T10:44:34;5.00;99.90
41469;DHT22;27206;47.032;15.484;2023-12-22T10:47:00;5.10;99.90
41469;DHT22;27206;47.032;15.484;2023-12-22T10:49:25;5.10;99.90
41469;DHT22;27206;47.032;15.484;2023-12-22T10:51:51;5.10;99.90
41469;DHT22;27206;47.032;15.484;2023-12-22T10:54:17;5.20;99.90
41469;DHT22;27206;47.032;15.484;2023-12-22T10:56:43;5.30;99.90
41469;DHT22;27206;47.032;15.484;2023-12-22T10:59:09;5.30;99.90
41469;DHT22;27206;47.032;15.484;2023-12-22T11:01:38;5.30;99.90
41469;DHT22;27206;47.032;15.484;2023-12-22T11:04:07;5.30;99.90
41469;DHT22;27206;47.032;15.484;2023-12-22T11:06:36;5.30;99.90
41469;DHT22;27206;47.032;15.484;2023-12-22T11:09:09;5.40;99.90
41469;DHT22;27206;47.032;15.484;2023-12-22T11:11:39;5.40;99.90
41469;DHT22;27206;47.032;15.484;2023-12-22T11:14:05;5.50;99.90
41469;DHT22;27206;47.032;15.484;2023-12-22T11:16:31;5.30;99.90
41469;DHT22;27206;47.032;15.484;2023-12-22T11:19:01;5.20;99.90
41469;DHT22;27206;47.032;15.484;2023-12-22T11:21:27;5.20;99.90
41469;DHT22;27206;47.032;15.484;2023-12-22T11:23:53;5.30;99.90
41469;DHT22;27206;47.032;15.484;2023-12-22T11:26:19;5.40;99.90
41469;DHT22;27206;47.032;15.484;2023-12-22T11:28:45;5.40;99.90
41469;DHT22;27206;47.032;15.484;2023-12-22T11:31:11;5.40;99.90
41469;DHT22;27206;47.032;15.484;2023-12-22T11:33:37;5.30;99.90
41469;DHT22;27206;47.032;15.484;2023-12-22T11:36:05;5.30;99.90
41469;DHT22;27206;47.032;15.484;2023-12-22T11:38:30;5.20;99.90
41469;DHT22;27206;47.032;15.484;2023-12-22T11:40:57;5.20;99.90
41469;DHT22;27206;47.032;15.484;2023-12-22T11:43:23;5.20;99.90
41469;DHT22;27206;47.032;15.484;2023-12-22T11:45:49;5.20;99.90
41469;DHT22;27206;47.032;15.484;2023-12-22T11:48:15;5.10;99.90
41469;DHT22;27206;47.032;15.484;2023-12-22T11:50:41;5.10;99.90
41469;DHT22;27206;47.032;15.484;2023-12-22T11:53:20;5.00;99.90
41469;DHT22;27206;47.032;15.484;2023-12-22T12:01:06;4.90;99.90
41469;DHT22;27206;47.032;15.484;2023-12-22T12:03:32;5.00;99.90
41469;DHT22;27206;47.032;15.484;2023-12-22T12:08:38;5.00;99.90
41469;DHT22;27206;47.032;15.484;2023-12-22T12:11:04;5.10;99.90
41469;DHT22;27206;47.032;15.484;2023-12-22T12:13:32;5.10;99.90
41469;DHT22;27206;47.032;15.484;2023-12-22T12:15:58;5.10;99.90
41469;DHT22;27206;47.032;15.484;2023-12-22T12:18:26;5.10;99.90
41469;DHT22;27206;47.032;15.484;2023-12-22T12:20:52;5.10;99.90
41469;DHT22;27206;47.032;15.484;2023-12-22T12:23:18;5.10;99.90
41469;DHT22;27206;47.032;15.484;2023-12-22T12:25:43;5.10;99.90
41469;DHT22;27206;47.032;15.484;2023-12-22T12:28:09;5.00;99.90
41469;DHT22;27206;47.032;15.484;2023-12-22T12:30:35;5.00;99.90
41469;DHT22;27206;47.032;15.484;2023-12-22T12:35:33;5.10;99.90
41469;DHT22;27206;47.032;15.484;2023-12-22T12:38:05;5.00;99.90
41469;DHT22;27206;47.032;15.484;2023-12-22T12:40:31;5.00;99.90
41469;DHT22;27206;47.032;15.484;2023-12-22T12:42:59;5.00;99.90
41469;DHT22;27206;47.032;15.484;2023-12-22T12:45:25;5.00;99.90
41469;DHT22;27206;47.032;15.484;2023-12-22T12:47:55;5.00;99.90
41469;DHT22;27206;47.032;15.484;2023-12-22T12:50:23;5.00;99.90
41469;DHT22;27206;47.032;15.484;2023-12-22T12:52:49;5.10;99.90
41469;DHT22;27206;47.032;15.484;2023-12-22T12:55:17;5.10;99.90
41469;DHT22;27206;47.032;15.484;2023-12-22T12:57:43;5.10;99.90
41469;DHT22;27206;47.032;15.484;2023-12-22T13:00:09;5.00;99.90
41469;DHT22;27206;47.032;15.484;2023-12-22T13:02:35;5.00;99.90
41469;DHT22;27206;47.032;15.484;2023-12-22T13:05:01;5.00;99.90
41469;DHT22;27206;47.032;15.484;2023-12-22T13:07:29;5.00;99.90
41469;DHT22;27206;47.032;15.484;2023-12-22T13:09:55;4.90;99.90
41469;DHT22;27206;47.032;15.484;2023-12-22T13:12:24;4.90;99.90
41469;DHT22;27206;47.032;15.484;2023-12-22T13:14:50;4.90;99.90
41469;DHT22;27206;47.032;15.484;2023-12-22T13:17:16;4.90;99.90
41469;DHT22;27206;47.032;15.484;2023-12-22T13:19:42;4.90;99.90
41469;DHT22;27206;47.032;15.484;2023-12-22T13:22:07;4.90;99.90
41469;DHT22;27206;47.032;15.484;2023-12-22T13:24:33;4.90;99.90
41469;DHT22;27206;47.032;15.484;2023-12-22T13:26:59;4.80;99.90
41469;DHT22;27206;47.032;15.484;2023-12-22T13:29:26;4.80;99.90
41469;DHT22;27206;47.032;15.484;2023-12-22T13:31:52;4.90;99.90
41469;DHT22;27206;47.032;15.484;2023-12-22T13:34:17;4.90;99.90
41469;DHT22;27206;47.032;15.484;2023-12-22T13:36:43;4.80;99.90
41469;DHT22;27206;47.032;15.484;2023-12-22T13:39:08;4.80;99.90
41469;DHT22;27206;47.032;15.484;2023-12-22T13:41:43;4.80;99.90
41469;DHT22;27206;47.032;15.484;2023-12-22T13:44:12;4.70;99.90
41469;DHT22;27206;47.032;15.484;2023-12-22T13:46:38;5.50;99.90
41469;DHT22;27206;47.032;15.484;2023-12-22T13:49:09;5.90;99.90
41469;DHT22;27206;47.032;15.484;2023-12-22T13:51:38;5.50;99.90
41469;DHT22;27206;47.032;15.484;2023-12-22T13:54:03;5.20;99.90
41469;DHT22;27206;47.032;15.484;2023-12-22T13:56:33;5.10;99.90
41469;DHT22;27206;47.032;15.484;2023-12-22T13:59:00;5.00;99.90
41469;DHT22;27206;47.032;15.484;2023-12-22T14:01:26;4.90;99.90
41469;DHT22;27206;47.032;15.484;2023-12-22T14:03:51;4.90;99.90
41469;DHT22;27206;47.032;15.484;2023-12-22T14:06:17;4.90;99.90
41469;DHT22;27206;47.032;15.484;2023-12-22T14:08:42;4.90;99.90
41469;DHT22;27206;47.032;15.484;2023-12-22T14:11:08;4.90;99.90
41469;DHT22;27206;47.032;15.484;2023-12-22T14:13:34;4.70;99.90
41469;DHT22;27206;47.032;15.484;2023-12-22T14:16:07;4.80;99.90
41469;DHT22;27206;47.032;15.484;2023-12-22T14:18:32;4.80;99.90
41469;DHT22;27206;47.032;15.484;2023-12-22T14:20:58;4.80;99.90
41469;DHT22;27206;47.032;15.484;2023-12-22T14:23:26;4.70;99.90
41469;DHT22;27206;47.032;15.484;2023-12-22T14:25:52;4.80;99.90
41469;DHT22;27206;47.032;15.484;2023-12-22T14:28:18;4.70;99.90
41469;DHT22;27206;47.032;15.484;2023-12-22T14:30:44;4.60;99.90
41469;DHT22;27206;47.032;15.484;2023-12-22T14:33:10;4.80;99.90
41469;DHT22;27206;47.032;15.484;2023-12-22T14:35:35;4.80;99.90
41469;DHT22;27206;47.032;15.484;2023-12-22T14:38:01;4.70;99.90
41469;DHT22;27206;47.032;15.484;2023-12-22T14:40:27;4.70;99.90
41469;DHT22;27206;47.032;15.484;2023-12-22T14:42:53;4.60;99.90
41469;DHT22;27206;47.032;15.484;2023-12-22T14:45:18;4.60;99.90
41469;DHT22;27206;47.032;15.484;2023-12-22T14:47:44;4.50;99.90
41469;DHT22;27206;47.032;15.484;2023-12-22T14:50:09;4.40;99.90
41469;DHT22;27206;47.032;15.484;2023-12-22T14:52:35;4.50;99.90
41469;DHT22;27206;47.032;15.484;2023-12-22T14:55:01;4.50;99.90
41469;DHT22;27206;47.032;15.484;2023-12-22T14:57:26;4.60;99.90
41469;DHT22;27206;47.032;15.484;2023-12-22T14:59:54;4.50;99.90
41469;DHT22;27206;47.032;15.484;2023-12-22T15:02:20;4.50;99.90
41469;DHT22;27206;47.032;15.484;2023-12-22T15:04:45;4.50;99.90
41469;DHT22;27206;47.032;15.484;2023-12-22T15:07:14;4.40;99.90
41469;DHT22;27206;47.032;15.484;2023-12-22T15:09:40;4.40;99.90
41469;DHT22;27206;47.032;15.484;2023-12-22T15:12:05;4.40;99.90
41469;DHT22;27206;47.032;15.484;2023-12-22T15:14:31;4.40;99.90
41469;DHT22;27206;47.032;15.484;2023-12-22T15:16:57;4.40;99.90
41469;DHT22;27206;47.032;15.484;2023-12-22T15:19:22;4.40;99.90
41469;DHT22;27206;47.032;15.484;2023-12-22T15:21:48;4.30;99.90
41469;DHT22;27206;47.032;15.484;2023-12-22T15:24:13;4.30;99.90
41469;DHT22;27206;47.032;15.484;2023-12-22T15:26:39;4.20;99.90
41469;DHT22;27206;47.032;15.484;2023-12-22T15:29:04;4.30;99.90
41469;DHT22;27206;47.032;15.484;2023-12-22T15:31:30;4.30;99.90
41469;DHT22;27206;47.032;15.484;2023-12-22T15:33:56;4.30;99.90
41469;DHT22;27206;47.032;15.484;2023-12-22T15:36:22;4.10;99.90
41469;DHT22;27206;47.032;15.484;2023-12-22T15:38:48;4.20;99.90